createdAt,value
2022-08-05T00:41:52.217Z,15.34
2022-08-05T00:47:02.170Z,15.48
2022-08-05T00:52:09.956Z,15.49
2022-08-05T00:57:21.270Z,15.73
2022-08-05T01:02:26.654Z,15.95
2022-08-05T01:07:33.862Z,15.77
2022-08-05T01:12:41.922Z,15.50
2022-08-05T01:18:11.273Z,15.43
2022-08-05T01:23:34.707Z,15.37
2022-08-05T01:28:45.458Z,15.14
2022-08-05T01:33:55.676Z,14.97
2022-08-05T01:39:01.602Z,14.87
2022-08-05T01:44:11.300Z,14.82
2022-08-05T01:49:24.167Z,14.81
2022-08-05T01:54:33.412Z,14.51
2022-08-05T01:59:41.691Z,14.44
2022-08-05T02:04:54.060Z,14.67
2022-08-05T02:09:59.432Z,14.71
2022-08-05T02:15:12.411Z,15.05
2022-08-05T02:20:23.414Z,15.41
2022-08-05T02:25:33.344Z,15.36
2022-08-05T02:30:54.559Z,15.47
2022-08-05T02:36:01.564Z,15.42
2022-08-05T02:41:17.139Z,15.18
2022-08-05T02:46:27.422Z,15.03
2022-08-05T02:52:02.803Z,14.77
2022-08-05T02:56:58.006Z,14.54
2022-08-05T03:02:04.175Z,14.37
2022-08-05T03:07:21.420Z,14.32
2022-08-05T03:12:35.567Z,14.25
2022-08-05T03:17:41.603Z,14.16
2022-08-05T03:22:46.875Z,14.22
2022-08-05T03:27:57.933Z,14.37
2022-08-05T03:33:07.325Z,14.41
2022-08-05T03:38:14.391Z,14.38
2022-08-05T03:44:08.699Z,14.37
2022-08-05T03:48:45.345Z,14.41
2022-08-05T03:55:00.495Z,14.40
2022-08-05T03:59:20.482Z,14.73
2022-08-05T04:04:27.897Z,14.82
2022-08-05T04:09:32.743Z,15.26
2022-08-05T04:14:41.007Z,15.29
2022-08-05T04:19:54.591Z,15.50
2022-08-05T04:25:02.710Z,15.85
2022-08-05T04:30:08.922Z,15.95
2022-08-05T04:35:17.555Z,16.40
2022-08-05T04:40:23.970Z,17.01
2022-08-05T04:45:48.508Z,17.25
2022-08-05T04:51:03.304Z,17.45
2022-08-05T04:56:34.964Z,17.63
2022-08-05T05:02:07.901Z,17.89
2022-08-05T05:07:05.102Z,18.39
2022-08-05T05:12:13.591Z,18.64
2022-08-05T05:17:23.801Z,18.93
2022-08-05T05:22:30.142Z,19.29
2022-08-05T05:27:45.221Z,19.59
2022-08-05T05:32:50.490Z,20.03
2022-08-05T05:38:01.587Z,20.24
2022-08-05T05:43:05.914Z,20.62
2022-08-05T05:48:16.079Z,21.02
2022-08-05T05:53:22.739Z,21.47
2022-08-05T05:58:31.893Z,21.86
2022-08-05T06:03:53.640Z,22.19
2022-08-05T06:09:04.000Z,21.95
2022-08-05T06:14:08.117Z,22.32
2022-08-05T06:19:12.518Z,22.70
2022-08-05T06:24:31.360Z,23.07
2022-08-05T06:29:46.828Z,23.77
2022-08-05T06:34:59.378Z,23.81
2022-08-05T06:40:05.736Z,24.28
2022-08-05T06:45:10.180Z,24.37
2022-08-05T06:50:26.638Z,24.65
2022-08-05T06:55:36.357Z,24.81
2022-08-05T07:00:41.176Z,25.11
2022-08-05T07:05:46.208Z,25.64
2022-08-05T07:10:53.939Z,25.09
2022-08-05T07:16:25.708Z,25.27
2022-08-05T07:22:00.607Z,25.73
2022-08-05T07:27:05.470Z,26.52
2022-08-05T07:32:13.027Z,26.87
2022-08-05T07:37:18.712Z,26.64
2022-08-05T07:42:31.472Z,27.38
2022-08-05T07:47:42.116Z,27.32
2022-08-05T07:52:46.690Z,27.70
2022-08-05T07:58:02.132Z,28.04
2022-08-05T08:03:14.103Z,28.18
2022-08-05T08:08:20.219Z,28.87
2022-08-05T08:13:29.331Z,27.43
2022-08-05T08:18:33.739Z,28.58
2022-08-05T08:24:01.511Z,29.15
2022-08-05T08:29:29.449Z,29.86
2022-08-05T08:34:30.237Z,30.49
2022-08-05T08:39:38.155Z,29.16
2022-08-05T08:45:20.946Z,30.41
2022-08-05T08:50:30.890Z,28.01
2022-08-05T08:56:04.215Z,26.77
2022-08-05T09:01:03.747Z,26.60
2022-08-05T09:06:11.463Z,30.71
2022-08-05T09:11:16.486Z,32.27
2022-08-05T09:16:22.226Z,32.09
2022-08-05T09:22:23.300Z,29.73
2022-08-05T09:26:57.735Z,27.68
2022-08-05T09:32:41.637Z,30.77
2022-08-05T09:38:16.487Z,28.93
2022-08-05T09:42:53.994Z,30.93
2022-08-05T09:48:01.063Z,29.52
2022-08-05T09:53:06.424Z,29.37
2022-08-05T09:58:13.819Z,31.42
2022-08-05T10:03:19.122Z,32.53
2022-08-05T10:08:37.689Z,33.55
2022-08-05T10:13:47.728Z,33.06
2022-08-05T10:18:54.838Z,31.98
2022-08-05T10:24:05.112Z,30.42
2022-08-05T10:29:17.192Z,29.38
2022-08-05T10:34:30.023Z,28.22
2022-08-05T10:40:03.279Z,27.59
2022-08-05T10:45:21.056Z,27.24
2022-08-05T10:50:35.440Z,30.08
2022-08-05T10:56:14.552Z,33.37
2022-08-05T11:01:55.684Z,34.03
2022-08-05T11:07:09.026Z,33.50
2022-08-05T11:12:45.178Z,29.59
2022-08-05T11:17:57.725Z,29.63
2022-08-05T11:24:02.775Z,33.50
2022-08-05T11:29:13.498Z,33.71
2022-08-05T11:34:37.701Z,29.87
2022-08-05T11:40:00.224Z,28.67
2022-08-05T11:45:14.243Z,30.13
2022-08-05T11:50:27.575Z,29.57
2022-08-05T11:55:36.553Z,28.23
2022-08-05T12:00:44.468Z,29.80
2022-08-05T12:05:51.286Z,28.70
2022-08-05T12:11:05.581Z,27.67
2022-08-05T12:16:14.449Z,27.25
2022-08-05T12:21:21.904Z,30.26
2022-08-05T12:26:34.014Z,31.87
2022-08-05T12:31:44.893Z,33.09
2022-08-05T12:36:55.602Z,32.76
2022-08-05T12:42:02.513Z,32.66
2022-08-05T12:47:07.275Z,32.96
2022-08-05T12:52:25.248Z,32.71
2022-08-05T12:58:38.591Z,32.63
2022-08-05T13:03:02.789Z,32.97
2022-08-05T13:08:08.773Z,32.96
2022-08-05T13:14:05.024Z,32.34
2022-08-05T13:18:51.624Z,32.19
2022-08-05T13:23:55.595Z,31.67
2022-08-05T13:29:00.981Z,31.64
2022-08-05T13:34:21.944Z,31.71
2022-08-05T13:40:15.063Z,31.71
2022-08-05T13:44:54.830Z,31.02
2022-08-05T13:49:58.764Z,30.94
2022-08-05T13:55:02.809Z,31.22
2022-08-05T14:00:14.575Z,31.35
2022-08-05T14:05:48.118Z,31.13
2022-08-05T14:10:44.154Z,31.27
2022-08-05T14:16:07.314Z,31.06
2022-08-05T14:22:07.729Z,30.35
2022-08-05T14:26:51.485Z,30.50
2022-08-05T14:32:15.863Z,30.01
2022-08-05T14:37:22.394Z,29.67
2022-08-05T14:42:26.866Z,29.88
2022-08-05T14:48:02.659Z,29.53
2022-08-05T14:52:58.461Z,29.40
2022-08-05T14:58:02.964Z,29.43
2022-08-05T15:03:17.700Z,29.30
2022-08-05T15:08:56.862Z,29.14
2022-08-05T15:13:50.341Z,29.27
2022-08-05T15:18:55.865Z,29.10
2022-08-05T15:24:00.717Z,28.86
2022-08-05T15:29:04.790Z,28.77
2022-08-05T15:34:31.256Z,28.50
2022-08-05T15:40:59.322Z,28.25
2022-08-05T15:44:57.988Z,28.10
2022-08-05T15:50:04.671Z,28.00
2022-08-05T15:55:15.598Z,28.07
2022-08-05T16:00:26.467Z,27.61
2022-08-05T16:05:52.161Z,27.84
2022-08-05T16:10:56.603Z,27.57
2022-08-05T16:16:00.715Z,27.23
2022-08-05T16:21:06.357Z,27.24
2022-08-05T16:26:12.480Z,26.79
2022-08-05T16:31:16.814Z,26.57
2022-08-05T16:36:23.706Z,26.26
2022-08-05T16:42:14.938Z,25.77
2022-08-05T16:46:55.861Z,25.53
2022-08-05T16:52:01.587Z,25.23
2022-08-05T16:57:14.879Z,25.17
2022-08-05T17:02:26.261Z,25.01
2022-08-05T17:07:43.578Z,24.89
2022-08-05T17:12:57.557Z,24.72
2022-08-05T17:18:01.662Z,24.30
2022-08-05T17:23:06.999Z,23.95
2022-08-05T17:28:15.532Z,23.63
2022-08-05T17:33:20.964Z,23.52
2022-08-05T17:38:26.304Z,23.19
2022-08-05T17:43:47.274Z,23.19
2022-08-05T17:48:55.360Z,23.14
2022-08-05T18:01:26.442Z,22.67
2022-08-05T18:06:30.983Z,22.54
2022-08-05T18:11:35.307Z,22.56
2022-08-05T18:16:51.468Z,22.21
2022-08-05T18:22:09.725Z,22.17
2022-08-05T18:27:18.532Z,21.96
2022-08-05T18:32:27.736Z,21.85
2022-08-05T18:37:34.716Z,21.44
2022-08-05T18:42:46.668Z,21.33
2022-08-05T18:47:56.630Z,21.17
2022-08-05T18:53:01.091Z,21.13
2022-08-05T18:58:16.287Z,21.22
2022-08-05T19:03:53.171Z,21.47
2022-08-05T19:08:47.290Z,21.17
2022-08-05T19:14:00.878Z,21.20
2022-08-05T19:19:10.526Z,20.92
2022-08-05T19:24:16.806Z,20.85
2022-08-05T19:29:39.665Z,20.66
2022-08-05T19:34:54.702Z,20.65
2022-08-05T19:40:00.404Z,20.60
2022-08-05T19:45:07.284Z,20.67
2022-08-05T19:50:12.879Z,20.69
2022-08-05T19:56:13.604Z,20.47
2022-08-05T20:00:41.723Z,20.36
2022-08-05T20:05:51.235Z,20.36
2022-08-05T20:10:56.756Z,20.36
2022-08-05T20:16:02.439Z,20.40
2022-08-05T20:21:09.771Z,20.32
2022-08-05T20:26:16.157Z,20.34
2022-08-05T20:31:36.943Z,20.15
2022-08-05T20:36:48.672Z,20.05
2022-08-05T20:41:54.134Z,20.03
2022-08-05T20:47:07.537Z,19.85
2022-08-05T20:52:12.998Z,19.94
2022-08-05T20:57:24.605Z,20.00
2022-08-05T21:02:44.887Z,19.84
2022-08-05T21:07:57.331Z,19.77
2022-08-05T21:13:11.202Z,19.89
2022-08-05T21:18:18.747Z,19.91
2022-08-05T21:23:24.322Z,19.79
2022-08-05T21:28:30.782Z,19.65
2022-08-05T21:33:39.781Z,19.72
2022-08-05T21:38:45.852Z,19.71
2022-08-05T21:44:01.244Z,19.77
2022-08-05T21:49:11.840Z,19.48
2022-08-05T21:54:34.329Z,19.56
2022-08-05T22:00:01.919Z,19.52
2022-08-05T22:05:02.275Z,19.15
2022-08-05T22:10:11.358Z,19.12
2022-08-05T22:15:17.188Z,19.16
2022-08-05T22:20:41.137Z,19.08
2022-08-05T22:26:09.784Z,18.94
2022-08-05T22:31:15.401Z,18.45
2022-08-05T22:36:19.360Z,18.31
2022-08-05T22:42:11.474Z,18.13
2022-08-05T22:46:53.325Z,18.00
2022-08-05T22:52:06.445Z,18.28
2022-08-05T22:57:13.129Z,17.88
2022-08-05T23:02:29.701Z,17.61
2022-08-05T23:07:45.244Z,17.53
2022-08-05T23:12:55.839Z,17.36
2022-08-05T23:18:03.722Z,17.35
2022-08-05T23:23:09.865Z,17.29
2022-08-05T23:28:17.255Z,17.19
2022-08-05T23:33:25.605Z,17.55
2022-08-05T23:38:30.663Z,17.93
2022-08-05T23:44:03.238Z,18.39
2022-08-05T23:49:03.735Z,18.49
2022-08-05T23:54:25.317Z,18.67
